N434AB 7S0-KMSO
Flight info
| Callsign | N434AB |
|---|---|
| Flight time | N/A |
| Altitude | 5000 |
| Route | / |
| Aircraft | BE17/L-S/L |
Departure
| Time | N/A |
|---|---|
| Airport | 7S0 |
Arrival
| Time | 2026-05-08 00:30 |
|---|---|
| Airport | Missoula Montana Airport (KMSO) |
| Time | Latitude | Longitude | Altitude | Speed | Heading |
|---|---|---|---|---|---|
| 2026-05-07 23:48 | 47.56713 | -114.10307 | 3082 ft | 0 kts | 185° |
| 2026-05-07 23:52 | 47.56702 | -114.10302 | 3115 ft | 3 kts | 116° |
| 2026-05-07 23:52 | 47.56721 | -114.10255 | 3121 ft | 7 kts | 10° |
| 2026-05-07 23:52 | 47.56748 | -114.10206 | 3126 ft | 7 kts | 1° |
| 2026-05-07 23:53 | 47.56795 | -114.10208 | 3123 ft | 7 kts | 358° |
| 2026-05-07 23:53 | 47.56847 | -114.10208 | 3124 ft | 8 kts | 360° |
| 2026-05-07 23:53 | 47.56901 | -114.10206 | 3129 ft | 8 kts | 358° |
| 2026-05-07 23:53 | 47.56950 | -114.10207 | 3123 ft | 6 kts | 358° |
| 2026-05-07 23:54 | 47.56989 | -114.10207 | 3122 ft | 4 kts | 0° |
| 2026-05-07 23:54 | 47.57013 | -114.10207 | 3122 ft | 4 kts | 360° |
| 2026-05-07 23:54 | 47.57110 | -114.10208 | 3123 ft | 20 kts | 360° |
| 2026-05-07 23:54 | 47.57237 | -114.10207 | 3118 ft | 16 kts | 0° |
| 2026-05-07 23:55 | 47.57332 | -114.10208 | 3124 ft | 9 kts | 359° |
| 2026-05-07 23:55 | 47.57357 | -114.10203 | 3121 ft | 0 kts | 25° |
| 2026-05-07 23:57 | 47.57364 | -114.10199 | 3121 ft | 6 kts | 32° |
| 2026-05-07 23:57 | 47.57364 | -114.10118 | 3124 ft | 10 kts | 140° |
| 2026-05-07 23:57 | 47.57217 | -114.10120 | 3120 ft | 42 kts | 192° |
| 2026-05-07 23:58 | 47.56751 | -114.10098 | 3158 ft | 89 kts | 183° |
| 2026-05-07 23:58 | 47.56082 | -114.10137 | 3399 ft | 101 kts | 185° |
| 2026-05-07 23:58 | 47.55358 | -114.10136 | 3888 ft | 109 kts | 185° |
| 2026-05-07 23:58 | 47.54519 | -114.10087 | 4231 ft | 135 kts | 171° |
| 2026-05-07 23:59 | 47.53937 | -114.09683 | 4476 ft | 144 kts | 145° |
| 2026-05-07 23:59 | 47.53264 | -114.08600 | 4978 ft | 148 kts | 132° |
| 2026-05-07 23:59 | 47.52268 | -114.07031 | 5330 ft | 158 kts | 143° |
| 2026-05-07 23:59 | 47.51340 | -114.06139 | 5545 ft | 164 kts | 155° |
| 2026-05-08 00:00 | 47.50279 | -114.05457 | 5716 ft | 167 kts | 165° |
| 2026-05-08 00:00 | 47.49168 | -114.05020 | 5941 ft | 168 kts | 171° |
| 2026-05-08 00:00 | 47.48388 | -114.04734 | 5967 ft | 171 kts | 170° |
| 2026-05-08 00:00 | 47.47225 | -114.04290 | 6033 ft | 174 kts | 170° |
| 2026-05-08 00:01 | 47.46031 | -114.04143 | 6010 ft | 177 kts | 187° |
| 2026-05-08 00:01 | 47.44832 | -114.04397 | 6128 ft | 171 kts | 199° |
| 2026-05-08 00:01 | 47.43765 | -114.05096 | 6238 ft | 168 kts | 218° |
| 2026-05-08 00:01 | 47.42910 | -114.06292 | 6149 ft | 172 kts | 235° |
| 2026-05-08 00:02 | 47.42302 | -114.07816 | 5893 ft | 165 kts | 251° |
| 2026-05-08 00:02 | 47.42049 | -114.09221 | 5510 ft | 129 kts | 263° |
| 2026-05-08 00:02 | 47.41955 | -114.10557 | 5222 ft | 132 kts | 274° |
| 2026-05-08 00:02 | 47.42178 | -114.11865 | 5021 ft | 130 kts | 297° |
| 2026-05-08 00:03 | 47.42688 | -114.12941 | 4929 ft | 125 kts | 309° |
| 2026-05-08 00:03 | 47.43262 | -114.13866 | 4841 ft | 121 kts | 309° |
| 2026-05-08 00:03 | 47.43857 | -114.14863 | 4892 ft | 134 kts | 309° |
| 2026-05-08 00:03 | 47.44501 | -114.15903 | 4943 ft | 140 kts | 311° |
| 2026-05-08 00:04 | 47.45172 | -114.16915 | 4989 ft | 132 kts | 313° |
| 2026-05-08 00:04 | 47.45820 | -114.17862 | 4917 ft | 131 kts | 313° |
| 2026-05-08 00:04 | 47.46473 | -114.18775 | 4955 ft | 127 kts | 322° |
| 2026-05-08 00:04 | 47.47007 | -114.19757 | 4959 ft | 125 kts | 287° |
| 2026-05-08 00:05 | 47.46946 | -114.21019 | 4933 ft | 130 kts | 249° |
| 2026-05-08 00:05 | 47.46287 | -114.21982 | 4879 ft | 139 kts | 210° |
| 2026-05-08 00:05 | 47.45328 | -114.22014 | 4873 ft | 148 kts | 163° |
| 2026-05-08 00:05 | 47.44640 | -114.20892 | 4858 ft | 149 kts | 103° |
| 2026-05-08 00:06 | 47.44847 | -114.19473 | 4805 ft | 145 kts | 46° |
| 2026-05-08 00:06 | 47.45709 | -114.18775 | 4602 ft | 145 kts | 1° |
| 2026-05-08 00:06 | 47.46598 | -114.19116 | 4658 ft | 127 kts | 328° |
| 2026-05-08 00:06 | 47.47345 | -114.19732 | 4795 ft | 117 kts | 324° |
| 2026-05-08 00:07 | 47.48005 | -114.20386 | 4917 ft | 113 kts | 320° |
| 2026-05-08 00:07 | 47.48572 | -114.21175 | 5021 ft | 111 kts | 308° |
| 2026-05-08 00:07 | 47.49010 | -114.22160 | 5026 ft | 117 kts | 295° |
| 2026-05-08 00:07 | 47.49282 | -114.23315 | 5029 ft | 121 kts | 287° |
| 2026-05-08 00:08 | 47.49496 | -114.24534 | 5004 ft | 124 kts | 283° |
| 2026-05-08 00:08 | 47.49595 | -114.25811 | 4937 ft | 127 kts | 273° |
| 2026-05-08 00:08 | 47.49501 | -114.27094 | 4956 ft | 127 kts | 253° |
| 2026-05-08 00:08 | 47.48851 | -114.28033 | 4896 ft | 141 kts | 212° |
| 2026-05-08 00:09 | 47.47980 | -114.28684 | 4918 ft | 137 kts | 211° |
| 2026-05-08 00:09 | 47.47132 | -114.29144 | 5111 ft | 127 kts | 202° |
| 2026-05-08 00:09 | 47.46359 | -114.29785 | 5023 ft | 130 kts | 233° |
| 2026-05-08 00:09 | 47.45889 | -114.30946 | 4929 ft | 132 kts | 245° |
| 2026-05-08 00:10 | 47.45404 | -114.32096 | 4930 ft | 131 kts | 240° |
| 2026-05-08 00:10 | 47.44820 | -114.33129 | 4917 ft | 132 kts | 230° |
| 2026-05-08 00:10 | 47.44095 | -114.33975 | 4873 ft | 136 kts | 216° |
| 2026-05-08 00:10 | 47.43255 | -114.34613 | 4853 ft | 134 kts | 211° |
| 2026-05-08 00:11 | 47.42389 | -114.35117 | 4794 ft | 135 kts | 207° |
| 2026-05-08 00:11 | 47.41468 | -114.35503 | 4737 ft | 141 kts | 195° |
| 2026-05-08 00:11 | 47.40462 | -114.35565 | 4640 ft | 149 kts | 179° |
| 2026-05-08 00:11 | 47.39500 | -114.35174 | 4707 ft | 140 kts | 145° |
| 2026-05-08 00:12 | 47.38616 | -114.34899 | 4632 ft | 132 kts | 193° |
| 2026-05-08 00:12 | 47.37737 | -114.35045 | 4834 ft | 122 kts | 191° |
| 2026-05-08 00:12 | 47.36839 | -114.35208 | 4958 ft | 141 kts | 193° |
| 2026-05-08 00:12 | 47.35820 | -114.35339 | 5013 ft | 150 kts | 184° |
| 2026-05-08 00:13 | 47.34779 | -114.35455 | 5091 ft | 149 kts | 199° |
| 2026-05-08 00:13 | 47.33723 | -114.35705 | 5029 ft | 162 kts | 184° |
| 2026-05-08 00:13 | 47.32608 | -114.35307 | 5032 ft | 170 kts | 158° |
| 2026-05-08 00:13 | 47.31752 | -114.34151 | 5039 ft | 168 kts | 124° |
| 2026-05-08 00:14 | 47.31225 | -114.32691 | 5015 ft | 157 kts | 120° |
| 2026-05-08 00:14 | 47.30429 | -114.31550 | 4909 ft | 162 kts | 143° |
| 2026-05-08 00:14 | 47.29579 | -114.30543 | 4949 ft | 152 kts | 140° |
| 2026-05-08 00:14 | 47.28823 | -114.29451 | 4978 ft | 154 kts | 121° |
| 2026-05-08 00:15 | 47.28608 | -114.27886 | 4894 ft | 158 kts | 83° |
| 2026-05-08 00:15 | 47.28386 | -114.26266 | 4849 ft | 163 kts | 98° |
| 2026-05-08 00:15 | 47.28260 | -114.24705 | 5012 ft | 147 kts | 86° |
| 2026-05-08 00:15 | 47.28278 | -114.23158 | 4943 ft | 154 kts | 81° |
| 2026-05-08 00:16 | 47.28324 | -114.21589 | 4961 ft | 153 kts | 82° |
| 2026-05-08 00:16 | 47.28393 | -114.20040 | 5082 ft | 149 kts | 82° |
| 2026-05-08 00:16 | 47.28344 | -114.18569 | 5061 ft | 153 kts | 118° |
| 2026-05-08 00:16 | 47.27442 | -114.17789 | 4942 ft | 156 kts | 174° |
| 2026-05-08 00:17 | 47.26414 | -114.17813 | 4918 ft | 147 kts | 206° |
| 2026-05-08 00:17 | 47.25678 | -114.18686 | 4958 ft | 125 kts | 244° |
| 2026-05-08 00:17 | 47.25262 | -114.19796 | 5037 ft | 125 kts | 249° |
| 2026-05-08 00:17 | 47.24778 | -114.21032 | 5113 ft | 148 kts | 241° |
| 2026-05-08 00:18 | 47.23964 | -114.22083 | 5211 ft | 165 kts | 205° |
| 2026-05-08 00:18 | 47.22820 | -114.22139 | 5368 ft | 161 kts | 177° |
| 2026-05-08 00:18 | 47.21720 | -114.21850 | 5490 ft | 162 kts | 171° |
| 2026-05-08 00:18 | 47.20652 | -114.21438 | 5826 ft | 156 kts | 171° |
| 2026-05-08 00:19 | 47.19560 | -114.21216 | 6011 ft | 160 kts | 191° |
| 2026-05-08 00:19 | 47.18519 | -114.21712 | 6192 ft | 153 kts | 212° |
| 2026-05-08 00:19 | 47.17649 | -114.22522 | 6319 ft | 142 kts | 226° |
| 2026-05-08 00:19 | 47.16911 | -114.23443 | 6603 ft | 142 kts | 227° |
| 2026-05-08 00:20 | 47.16103 | -114.24304 | 6851 ft | 141 kts | 219° |
| 2026-05-08 00:20 | 47.15280 | -114.25092 | 6994 ft | 147 kts | 216° |
| 2026-05-08 00:20 | 47.14376 | -114.25855 | 7094 ft | 152 kts | 217° |
| 2026-05-08 00:20 | 47.13503 | -114.26659 | 7143 ft | 146 kts | 219° |
| 2026-05-08 00:21 | 47.12613 | -114.27451 | 6947 ft | 153 kts | 205° |
| 2026-05-08 00:21 | 47.11646 | -114.27937 | 6879 ft | 143 kts | 203° |
| 2026-05-08 00:21 | 47.10708 | -114.28360 | 6664 ft | 140 kts | 202° |
| 2026-05-08 00:21 | 47.09759 | -114.28713 | 6392 ft | 144 kts | 197° |
| 2026-05-08 00:22 | 47.08844 | -114.29212 | 5941 ft | 142 kts | 210° |
| 2026-05-08 00:22 | 47.07915 | -114.29550 | 5799 ft | 136 kts | 193° |
| 2026-05-08 00:22 | 47.06972 | -114.29661 | 5659 ft | 138 kts | 187° |
| 2026-05-08 00:22 | 47.05984 | -114.29596 | 5317 ft | 143 kts | 172° |
| 2026-05-08 00:23 | 47.05037 | -114.29286 | 5167 ft | 135 kts | 163° |
| 2026-05-08 00:23 | 47.04192 | -114.28856 | 5138 ft | 125 kts | 159° |
| 2026-05-08 00:23 | 47.03394 | -114.28345 | 4915 ft | 132 kts | 153° |
| 2026-05-08 00:23 | 47.02595 | -114.27609 | 4672 ft | 135 kts | 143° |
| 2026-05-08 00:24 | 47.01891 | -114.26794 | 4639 ft | 133 kts | 140° |
| 2026-05-08 00:24 | 47.01189 | -114.25858 | 4649 ft | 138 kts | 137° |
| 2026-05-08 00:24 | 47.00434 | -114.24948 | 4634 ft | 143 kts | 146° |
| 2026-05-08 00:24 | 46.99598 | -114.24109 | 4604 ft | 147 kts | 145° |
| 2026-05-08 00:25 | 46.98761 | -114.23271 | 4625 ft | 147 kts | 146° |
| 2026-05-08 00:25 | 46.97903 | -114.22437 | 4594 ft | 149 kts | 147° |
| 2026-05-08 00:25 | 46.97027 | -114.21609 | 4558 ft | 151 kts | 147° |
| 2026-05-08 00:25 | 46.96127 | -114.20810 | 4522 ft | 151 kts | 149° |
| 2026-05-08 00:26 | 46.95224 | -114.20019 | 4489 ft | 151 kts | 146° |
| 2026-05-08 00:26 | 46.94380 | -114.19151 | 4507 ft | 142 kts | 144° |
| 2026-05-08 00:26 | 46.93631 | -114.18319 | 4474 ft | 128 kts | 141° |
| 2026-05-08 00:26 | 46.92967 | -114.17495 | 4504 ft | 127 kts | 138° |
| 2026-05-08 00:27 | 46.92303 | -114.16566 | 4518 ft | 136 kts | 130° |
| 2026-05-08 00:27 | 46.91880 | -114.15310 | 4436 ft | 138 kts | 110° |
| 2026-05-08 00:27 | 46.91564 | -114.14016 | 4337 ft | 131 kts | 109° |
| 2026-05-08 00:27 | 46.91254 | -114.12825 | 4256 ft | 119 kts | 119° |
| 2026-05-08 00:28 | 46.90806 | -114.11873 | 4241 ft | 107 kts | 127° |
| 2026-05-08 00:28 | 46.90367 | -114.11030 | 4146 ft | 102 kts | 127° |
| 2026-05-08 00:28 | 46.89935 | -114.10225 | 4063 ft | 99 kts | 129° |
| 2026-05-08 00:28 | 46.89521 | -114.09473 | 4040 ft | 91 kts | 128° |
| 2026-05-08 00:29 | 46.89114 | -114.08738 | 4065 ft | 97 kts | 122° |
| 2026-05-08 00:29 | 46.89070 | -114.07763 | 4054 ft | 102 kts | 63° |
| 2026-05-08 00:29 | 46.89506 | -114.07067 | 3908 ft | 87 kts | 38° |
| 2026-05-08 00:29 | 46.90042 | -114.06815 | 3654 ft | 78 kts | 353° |
| 2026-05-08 00:30 | 46.90499 | -114.07252 | 3314 ft | 79 kts | 310° |
| 2026-05-08 00:30 | 46.90823 | -114.07816 | 3204 ft | 64 kts | 311° |
| 2026-05-08 00:30 | 46.90973 | -114.08072 | 3202 ft | 17 kts | 310° |
| 2026-05-08 00:30 | 46.91059 | -114.08222 | 3201 ft | 21 kts | 310° |
| 2026-05-08 00:31 | 46.91163 | -114.08396 | 3199 ft | 23 kts | 311° |
| 2026-05-08 00:31 | 46.91259 | -114.08499 | 3199 ft | 16 kts | 14° |
| 2026-05-08 00:31 | 46.91320 | -114.08440 | 3200 ft | 6 kts | 41° |
| 2026-05-08 00:31 | 46.91359 | -114.08390 | 3200 ft | 11 kts | 41° |
| 2026-05-08 00:32 | 46.91431 | -114.08302 | 3201 ft | 16 kts | 39° |
| 2026-05-08 00:32 | 46.91510 | -114.08203 | 3201 ft | 10 kts | 40° |
| 2026-05-08 00:32 | 46.91530 | -114.08124 | 3202 ft | 6 kts | 126° |
| 2026-05-08 00:32 | 46.91482 | -114.08118 | 3201 ft | 8 kts | 179° |
| 2026-05-08 00:33 | 46.91443 | -114.08116 | 3201 ft | 6 kts | 175° |
| 2026-05-08 00:33 | 46.91430 | -114.08058 | 3202 ft | 8 kts | 89° |
| 2026-05-08 00:33 | 46.91430 | -114.08045 | 3202 ft | 1 kts | 91° |
| 2026-05-08 00:33 | 46.91430 | -114.08030 | 3202 ft | 0 kts | 89° |